Time;durP1;ratioP1;P1;durP2;ratioP2;P2;SDS_P1;SDS_P2;PMS_P1;PMS_P2;Temp;Humidity;BMP_temperature;BMP_pressure;BME280_temperature;BME280_humidity;BME280_pressure;Samples;Min_cycle;Max_cycle;Signal;HPM_P1;HPM_P2
2023/12/22 00:00:04;;;;;;;12.37;3.97;;;6.40;99.90;;;;;;5015809;28;20604;-63
2023/12/22 00:02:32;;;;;;;11.53;3.20;;;6.40;99.90;;;;;;5012563;28;20577;-63
2023/12/22 00:05:00;;;;;;;11.60;2.60;;;6.30;99.90;;;;;;5016652;28;20859;-63
2023/12/22 00:07:28;;;;;;;15.30;3.27;;;6.30;99.90;;;;;;5021185;28;20479;-63
2023/12/22 00:09:57;;;;;;;7.87;3.50;;;6.30;99.90;;;;;;5027611;28;20533;-63
2023/12/22 00:12:26;;;;;;;13.13;3.57;;;6.30;99.90;;;;;;5019301;28;20898;-62
2023/12/22 00:14:54;;;;;;;8.70;2.70;;;6.30;99.90;;;;;;5012496;28;20590;-62
2023/12/22 00:17:22;;;;;;;9.33;2.87;;;6.30;99.90;;;;;;5017212;28;20520;-61
2023/12/22 00:19:50;;;;;;;10.20;2.77;;;6.30;99.90;;;;;;5013263;28;20616;-62
2023/12/22 00:22:18;;;;;;;8.23;3.20;;;6.20;99.90;;;;;;5013815;28;20476;-63
2023/12/22 00:24:46;;;;;;;11.70;2.73;;;6.20;99.90;;;;;;5015814;28;20455;-63
2023/12/22 00:27:14;;;;;;;8.33;3.70;;;6.20;99.90;;;;;;5014418;28;20477;-62
2023/12/22 00:29:44;;;;;;;13.03;4.10;;;6.20;99.90;;;;;;5012208;28;20479;-63
2023/12/22 00:32:12;;;;;;;16.17;4.80;;;6.10;99.90;;;;;;5012434;28;20491;-63
2023/12/22 00:34:40;;;;;;;12.07;3.10;;;6.10;99.90;;;;;;5013805;28;20923;-63
2023/12/22 00:37:08;;;;;;;9.53;3.20;;;6.10;99.90;;;;;;5018887;28;21075;-62
2023/12/22 00:39:36;;;;;;;10.80;3.83;;;6.10;99.90;;;;;;5024312;28;20484;-63
2023/12/22 00:42:04;;;;;;;8.07;2.37;;;6.10;99.90;;;;;;5019214;28;20583;-63
2023/12/22 00:44:32;;;;;;;8.83;2.97;;;6.10;99.90;;;;;;5024559;28;20472;-63
2023/12/22 00:47:02;;;;;;;13.40;2.90;;;6.10;99.90;;;;;;5015450;28;20471;-62
2023/12/22 00:49:30;;;;;;;14.97;2.50;;;6.20;99.90;;;;;;5009581;28;20472;-63
2023/12/22 00:51:58;;;;;;;8.80;2.67;;;6.20;99.90;;;;;;5009981;28;20568;-62
2023/12/22 00:54:26;;;;;;;13.27;2.90;;;6.20;99.90;;;;;;5012241;28;20614;-63
2023/12/22 00:56:54;;;;;;;12.83;2.83;;;6.20;99.90;;;;;;5019491;28;20506;-63
2023/12/22 00:59:22;;;;;;;9.73;3.00;;;6.10;99.90;;;;;;5022839;28;20553;-63
2023/12/22 01:01:50;;;;;;;18.00;4.33;;;6.10;99.90;;;;;;5022150;28;20478;-63
2023/12/22 01:04:19;;;;;;;14.47;3.67;;;6.10;99.90;;;;;;5023046;28;20471;-63
2023/12/22 01:06:48;;;;;;;10.43;3.00;;;6.00;99.90;;;;;;5016204;28;20468;-63
2023/12/22 01:09:16;;;;;;;13.30;3.67;;;6.00;99.90;;;;;;5009623;28;20471;-63
2023/12/22 01:11:44;;;;;;;11.80;3.40;;;6.00;99.90;;;;;;5017560;28;20515;-63
2023/12/22 01:14:13;;;;;;;14.37;3.90;;;6.00;99.90;;;;;;5026140;28;20549;-63
2023/12/22 01:16:41;;;;;;;17.53;3.63;;;6.00;99.90;;;;;;5020185;28;20500;-63
2023/12/22 01:19:09;;;;;;;8.23;2.80;;;6.00;99.90;;;;;;5013405;28;20471;-64
2023/12/22 01:21:38;;;;;;;12.70;3.20;;;5.90;99.90;;;;;;5017772;28;20495;-63
2023/12/22 01:24:06;;;;;;;12.00;3.03;;;5.90;99.90;;;;;;5020226;28;20557;-63
2023/12/22 01:26:34;;;;;;;9.80;2.20;;;5.90;99.90;;;;;;5024481;28;21027;-63
2023/12/22 01:29:02;;;;;;;6.90;2.37;;;5.80;99.90;;;;;;5026438;28;20471;-63
2023/12/22 01:31:31;;;;;;;6.73;2.17;;;5.80;99.90;;;;;;5025348;28;20482;-63
2023/12/22 01:33:59;;;;;;;4.83;2.00;;;5.70;99.90;;;;;;5020383;28;20470;-63
2023/12/22 01:36:27;;;;;;;6.07;1.83;;;5.50;99.90;;;;;;5022568;28;20468;-62
2023/12/22 01:38:56;;;;;;;5.60;1.47;;;5.40;99.90;;;;;;5021513;28;20467;-63
2023/12/22 01:41:24;;;;;;;6.57;1.57;;;5.20;99.90;;;;;;5024322;28;20583;-63
2023/12/22 01:43:52;;;;;;;3.87;1.20;;;5.00;99.90;;;;;;5024635;28;20934;-62
2023/12/22 01:46:21;;;;;;;2.90;1.07;;;4.70;99.90;;;;;;5027532;28;20971;-62
2023/12/22 01:48:49;;;;;;;1.50;1.07;;;4.50;99.90;;;;;;5026505;28;20475;-63
2023/12/22 01:51:17;;;;;;;3.47;1.37;;;4.50;99.90;;;;;;5024314;28;20467;-63
2023/12/22 01:53:46;;;;;;;1.53;1.00;;;4.40;99.90;;;;;;5022126;28;20559;-64
2023/12/22 01:56:16;;;;;;;1.90;1.10;;;4.30;99.90;;;;;;5026186;28;20511;-63
2023/12/22 01:58:44;;;;;;;2.30;0.90;;;4.20;99.90;;;;;;5033203;28;20996;-63
2023/12/22 02:01:12;;;;;;;2.30;1.00;;;4.10;99.90;;;;;;5026847;28;20478;-63
2023/12/22 02:03:41;;;;;;;1.90;0.90;;;4.10;99.90;;;;;;5023225;28;20968;-62
2023/12/22 02:06:09;;;;;;;2.60;0.90;;;4.00;99.90;;;;;;5014965;28;20523;-63
2023/12/22 02:08:37;;;;;;;5.87;1.17;;;4.00;99.90;;;;;;5022926;28;20467;-62
2023/12/22 02:11:05;;;;;;;2.90;1.10;;;4.00;99.90;;;;;;5024088;28;20481;-63
2023/12/22 02:13:35;;;;;;;2.30;0.80;;;4.00;99.90;;;;;;5025275;28;20549;-63
2023/12/22 02:16:08;;;;;;;4.10;1.00;;;4.00;99.90;;;;;;5027889;28;20560;-62
2023/12/22 02:18:40;;;;;;;2.30;0.80;;;3.90;99.90;;;;;;5021217;28;20491;-63
2023/12/22 02:21:08;;;;;;;2.63;1.17;;;3.90;99.90;;;;;;5020948;28;20560;-62
2023/12/22 02:23:37;;;;;;;6.10;1.50;;;3.90;99.90;;;;;;5024774;28;20479;-63
2023/12/22 02:26:13;;;;;;;3.20;1.13;;;4.00;99.90;;;;;;5018887;28;20963;-62
2023/12/22 02:28:42;;;;;;;5.00;1.67;;;4.00;99.90;;;;;;5027753;28;20566;-63
2023/12/22 02:31:17;;;;;;;9.67;1.60;;;4.00;99.90;;;;;;5026483;28;20479;-63
2023/12/22 02:33:47;;;;;;;3.30;1.40;;;4.00;99.90;;;;;;5022146;28;20539;-63
2023/12/22 02:36:17;;;;;;;4.37;1.00;;;4.00;99.90;;;;;;5014057;28;20961;-61
2023/12/22 02:38:48;;;;;;;8.03;1.87;;;4.10;99.90;;;;;;5022976;28;20494;-63
2023/12/22 02:41:17;;;;;;;7.10;1.70;;;4.10;99.90;;;;;;5028057;28;20469;-63
2023/12/22 02:43:45;;;;;;;7.50;1.90;;;4.20;99.90;;;;;;5025334;28;20573;-62
2023/12/22 02:46:15;;;;;;;4.40;1.80;;;4.20;99.90;;;;;;5019440;28;20474;-62
2023/12/22 02:48:43;;;;;;;6.73;2.00;;;4.30;99.90;;;;;;5030469;28;20478;-63
2023/12/22 02:51:11;;;;;;;5.20;1.63;;;4.20;99.90;;;;;;5031250;28;20834;-63
2023/12/22 02:53:39;;;;;;;6.80;1.70;;;4.20;99.90;;;;;;5026273;28;21003;-63
2023/12/22 02:56:08;;;;;;;4.10;1.50;;;4.20;99.90;;;;;;5019061;28;20567;-62
2023/12/22 02:58:36;;;;;;;8.33;1.10;;;4.30;99.90;;;;;;5024019;28;20482;-63
2023/12/22 03:01:04;;;;;;;2.73;1.60;;;4.20;99.90;;;;;;5027036;28;20536;-63
2023/12/22 03:03:32;;;;;;;4.50;1.43;;;4.30;99.90;;;;;;5022419;28;20487;-63
2023/12/22 03:06:00;;;;;;;2.67;1.00;;;4.20;99.90;;;;;;5024545;28;20991;-64
2023/12/22 03:08:28;;;;;;;5.13;1.57;;;4.20;99.90;;;;;;5022059;28;20469;-63
2023/12/22 03:10:56;;;;;;;4.33;0.80;;;4.20;99.90;;;;;;5024951;28;20469;-63
2023/12/22 03:13:26;;;;;;;2.87;0.90;;;4.20;99.90;;;;;;5017635;28;20495;-63
2023/12/22 03:15:54;;;;;;;1.63;0.70;;;4.10;99.90;;;;;;5024617;28;20525;-63
2023/12/22 03:18:22;;;;;;;3.20;0.97;;;4.10;99.90;;;;;;5026162;28;20522;-63
2023/12/22 03:20:50;;;;;;;1.10;0.60;;;4.10;99.90;;;;;;5031161;28;20553;-63
2023/12/22 03:23:18;;;;;;;1.00;0.70;;;4.10;99.90;;;;;;5021010;28;21150;-63
2023/12/22 03:25:46;;;;;;;1.30;0.73;;;4.10;99.90;;;;;;5026015;28;20912;-63
2023/12/22 03:28:14;;;;;;;2.00;0.80;;;4.00;99.90;;;;;;5024659;28;20472;-62
2023/12/22 03:30:43;;;;;;;2.43;0.80;;;4.00;99.90;;;;;;5026820;28;20466;-63
2023/12/22 03:33:11;;;;;;;1.13;1.03;;;3.90;99.90;;;;;;5027345;28;20498;-63
2023/12/22 03:35:40;;;;;;;0.70;0.63;;;3.90;99.90;;;;;;5021691;28;20476;-63
2023/12/22 03:38:08;;;;;;;2.10;0.60;;;3.90;99.90;;;;;;5025875;28;20491;-63
2023/12/22 03:40:36;;;;;;;1.47;0.80;;;3.80;99.90;;;;;;5023247;28;20489;-62
2023/12/22 03:43:04;;;;;;;1.63;0.70;;;3.80;99.90;;;;;;5024446;28;20616;-63
2023/12/22 03:45:32;;;;;;;2.97;0.90;;;3.80;99.90;;;;;;5026622;28;20470;-63
2023/12/22 03:48:01;;;;;;;3.33;0.70;;;3.70;99.90;;;;;;5029508;28;20554;-62
2023/12/22 03:50:29;;;;;;;3.73;0.83;;;3.70;99.90;;;;;;5025482;28;21109;-63
2023/12/22 03:52:57;;;;;;;2.07;1.10;;;3.70;99.90;;;;;;5024942;28;20482;-63
2023/12/22 03:55:25;;;;;;;2.20;1.13;;;3.70;99.90;;;;;;5023620;28;21194;-63
2023/12/22 03:57:53;;;;;;;2.40;1.20;;;3.70;99.90;;;;;;5025651;28;20882;-62
2023/12/22 04:00:21;;;;;;;5.80;1.00;;;3.80;99.90;;;;;;5018020;28;20474;-63
2023/12/22 04:02:49;;;;;;;4.07;1.17;;;3.80;99.90;;;;;;5028134;28;20478;-63
2023/12/22 04:05:19;;;;;;;5.90;1.77;;;3.70;99.90;;;;;;5030528;28;20499;-62
2023/12/22 04:07:47;;;;;;;8.63;1.50;;;3.80;99.90;;;;;;5029656;28;20828;-63
2023/12/22 04:10:17;;;;;;;3.17;1.50;;;3.80;99.90;;;;;;5022842;28;20480;-62
2023/12/22 04:12:45;;;;;;;4.03;2.03;;;3.90;99.90;;;;;;5027961;28;20494;-63
2023/12/22 04:15:13;;;;;;;7.27;1.40;;;3.90;99.90;;;;;;5031231;28;20568;-63
2023/12/22 04:17:41;;;;;;;5.70;2.37;;;3.90;99.90;;;;;;5029686;28;20475;-63
2023/12/22 04:20:09;;;;;;;3.13;0.93;;;4.00;99.90;;;;;;5028276;28;20494;-63
2023/12/22 04:22:39;;;;;;;8.53;1.93;;;4.00;99.90;;;;;;5020241;28;20498;-63
2023/12/22 04:25:08;;;;;;;6.00;1.57;;;4.10;99.90;;;;;;5025571;28;20473;-63
2023/12/22 04:27:36;;;;;;;5.60;1.73;;;4.10;99.90;;;;;;5028726;28;20485;-63
2023/12/22 04:30:05;;;;;;;6.83;1.57;;;4.20;99.90;;;;;;5024655;28;20847;-63
2023/12/22 04:32:33;;;;;;;5.80;2.20;;;4.20;99.90;;;;;;5026359;28;20529;-64
2023/12/22 04:35:01;;;;;;;5.30;1.70;;;4.30;99.90;;;;;;5027655;28;20474;-62
2023/12/22 04:37:29;;;;;;;6.13;1.80;;;4.30;99.90;;;;;;5023776;28;20562;-62
2023/12/22 04:39:58;;;;;;;5.23;1.47;;;4.30;99.90;;;;;;5024489;28;20542;-61
2023/12/22 04:42:27;;;;;;;6.20;1.90;;;4.40;99.90;;;;;;5020686;28;20510;-61
2023/12/22 04:44:55;;;;;;;9.20;1.60;;;4.40;99.90;;;;;;5030691;28;20475;-64
2023/12/22 04:47:23;;;;;;;4.13;1.73;;;4.50;99.90;;;;;;5021416;28;20466;-62
2023/12/22 04:49:51;;;;;;;3.60;1.10;;;4.50;99.90;;;;;;5018479;28;20463;-63
2023/12/22 04:52:19;;;;;;;8.13;1.80;;;4.60;99.90;;;;;;5025399;28;20486;-63
2023/12/22 04:54:47;;;;;;;8.23;1.50;;;4.60;99.90;;;;;;5018933;28;20478;-63
2023/12/22 04:57:16;;;;;;;9.00;1.73;;;4.60;99.90;;;;;;5022829;28;21053;-62
2023/12/22 04:59:46;;;;;;;5.83;1.60;;;4.70;99.90;;;;;;5026671;28;20505;-63
2023/12/22 05:02:14;;;;;;;6.77;1.70;;;4.70;99.90;;;;;;5027229;28;20623;-63
2023/12/22 05:04:42;;;;;;;7.33;1.40;;;4.80;99.90;;;;;;5028120;28;20571;-63
2023/12/22 05:07:10;;;;;;;9.27;2.17;;;4.80;99.90;;;;;;5022627;28;20471;-63
2023/12/22 05:09:38;;;;;;;4.60;1.70;;;4.80;99.90;;;;;;5021912;28;21307;-63
2023/12/22 05:12:07;;;;;;;8.33;2.37;;;4.80;99.90;;;;;;5029886;28;20569;-63
2023/12/22 05:14:36;;;;;;;8.90;2.23;;;4.80;99.90;;;;;;5024485;28;20906;-63
2023/12/22 05:17:05;;;;;;;5.30;1.77;;;4.80;99.90;;;;;;5027241;28;20496;-62
2023/12/22 05:19:33;;;;;;;5.33;1.60;;;4.80;99.90;;;;;;5025015;28;20487;-62
2023/12/22 05:22:01;;;;;;;6.77;1.40;;;4.70;99.90;;;;;;5021501;28;20867;-63
2023/12/22 05:24:29;;;;;;;8.53;2.17;;;4.60;99.90;;;;;;5023068;28;20551;-62
2023/12/22 05:26:57;;;;;;;5.40;1.73;;;4.50;99.90;;;;;;5029965;28;20917;-62
2023/12/22 05:29:25;;;;;;;4.23;1.93;;;4.50;99.90;;;;;;5022353;28;20475;-62
2023/12/22 05:31:54;;;;;;;6.50;1.53;;;4.40;99.90;;;;;;5023104;28;20578;-63
2023/12/22 05:34:23;;;;;;;9.93;2.17;;;4.30;99.90;;;;;;5026989;28;21126;-62
2023/12/22 05:36:51;;;;;;;5.40;2.00;;;4.20;99.90;;;;;;5025183;28;20470;-62
2023/12/22 05:39:19;;;;;;;5.60;1.50;;;4.20;99.90;;;;;;5025993;28;20985;-62
2023/12/22 05:41:47;;;;;;;4.53;1.63;;;4.20;99.90;;;;;;5025752;28;20525;-62
2023/12/22 05:44:15;;;;;;;4.77;1.60;;;4.20;99.90;;;;;;5024627;28;20597;-62
2023/12/22 05:46:43;;;;;;;7.57;1.53;;;4.20;99.90;;;;;;5032487;28;20562;-61
2023/12/22 05:49:12;;;;;;;3.53;1.40;;;4.10;99.90;;;;;;5038051;28;20463;-62
2023/12/22 05:51:41;;;;;;;9.03;2.53;;;3.90;99.90;;;;;;5033392;28;20554;-62
2023/12/22 05:54:10;;;;;;;5.17;1.50;;;3.90;99.90;;;;;;5027290;28;20603;-62
2023/12/22 05:56:38;;;;;;;4.93;1.30;;;3.70;99.90;;;;;;5022847;28;20475;-62
2023/12/22 05:59:06;;;;;;;5.57;1.50;;;3.70;99.90;;;;;;5024153;28;20495;-62
2023/12/22 06:01:34;;;;;;;4.50;1.67;;;3.50;99.90;;;;;;5021110;28;21058;-61
2023/12/22 06:04:02;;;;;;;5.57;1.90;;;3.50;99.90;;;;;;5023731;28;20477;-62
2023/12/22 06:06:31;;;;;;;2.80;1.20;;;3.40;99.90;;;;;;5025384;28;21016;-62
2023/12/22 06:08:59;;;;;;;7.20;1.80;;;3.30;99.90;;;;;;5028924;28;20500;-62
2023/12/22 06:11:27;;;;;;;3.83;1.10;;;3.30;99.90;;;;;;5028044;28;20493;-62
2023/12/22 06:13:55;;;;;;;3.13;1.20;;;3.30;99.90;;;;;;5030379;28;21045;-62
2023/12/22 06:16:23;;;;;;;6.73;1.07;;;3.30;99.90;;;;;;5026252;28;20509;-62
2023/12/22 06:18:51;;;;;;;7.47;1.17;;;3.30;99.90;;;;;;5021252;28;20529;-62
2023/12/22 06:21:19;;;;;;;5.77;1.20;;;3.30;99.90;;;;;;5033692;28;20594;-62
2023/12/22 06:23:49;;;;;;;6.40;1.10;;;3.30;99.90;;;;;;5028584;28;20467;-62
2023/12/22 06:26:17;;;;;;;5.70;1.40;;;3.40;99.90;;;;;;5026984;28;20975;-62
2023/12/22 06:28:45;;;;;;;4.73;1.70;;;3.40;99.90;;;;;;5022731;28;21319;-63
2023/12/22 06:31:19;;;;;;;3.60;1.50;;;3.40;99.90;;;;;;5020218;28;20463;-61
2023/12/22 06:33:47;;;;;;;6.83;1.97;;;3.40;99.90;;;;;;5022874;28;20470;-62
2023/12/22 06:36:20;;;;;;;5.13;1.73;;;3.40;99.90;;;;;;5024811;28;20960;-62
2023/12/22 06:38:49;;;;;;;7.53;2.10;;;3.50;99.90;;;;;;5024775;28;20912;-62
2023/12/22 06:41:21;;;;;;;7.13;2.20;;;3.50;99.90;;;;;;5025218;28;20598;-62
2023/12/22 06:43:54;;;;;;;6.27;1.70;;;3.60;99.90;;;;;;5020061;28;20545;-61
2023/12/22 06:46:25;;;;;;;6.20;1.50;;;3.60;99.90;;;;;;5025816;28;20474;-62
2023/12/22 06:48:54;;;;;;;6.70;1.87;;;3.60;99.90;;;;;;5021939;28;20466;-62
2023/12/22 06:51:25;;;;;;;8.60;1.90;;;3.70;99.90;;;;;;5021416;28;20553;-62
2023/12/22 06:53:55;;;;;;;8.43;2.43;;;3.70;99.90;;;;;;5023185;28;20573;-62
2023/12/22 06:56:26;;;;;;;10.00;2.27;;;3.70;99.90;;;;;;5021875;28;20467;-61
2023/12/22 06:58:56;;;;;;;8.50;2.30;;;3.80;99.90;;;;;;5016804;28;20499;-61
2023/12/22 07:01:25;;;;;;;12.13;2.30;;;3.80;99.90;;;;;;5023522;28;20491;-61
2023/12/22 07:03:54;;;;;;;6.33;2.30;;;3.90;99.90;;;;;;5019385;28;20474;-62
2023/12/22 07:06:23;;;;;;;15.70;3.07;;;3.90;99.90;;;;;;5019374;28;20588;-62
2023/12/22 07:09:30;;;;;;;9.30;2.60;;;3.90;99.90;;;;;;5024313;28;20495;-62
2023/12/22 07:11:58;;;;;;;7.20;2.83;;;4.00;99.90;;;;;;5022696;28;20864;-62
2023/12/22 07:14:26;;;;;;;9.20;3.57;;;4.00;99.90;;;;;;5023560;28;20568;-62
2023/12/22 07:16:54;;;;;;;13.70;2.80;;;4.10;99.90;;;;;;5027435;28;21015;-62
2023/12/22 07:19:22;;;;;;;10.00;2.70;;;4.10;99.90;;;;;;5027229;28;20893;-62
2023/12/22 07:21:50;;;;;;;12.13;5.20;;;4.10;99.90;;;;;;5024655;28;20935;-61
2023/12/22 07:24:19;;;;;;;10.83;2.77;;;4.20;99.90;;;;;;5025290;28;20563;-63
2023/12/22 07:26:47;;;;;;;9.77;2.90;;;4.20;99.90;;;;;;5025402;28;20571;-63
2023/12/22 07:29:16;;;;;;;12.53;3.27;;;4.20;99.90;;;;;;5024445;28;20490;-62
2023/12/22 07:31:44;;;;;;;8.57;2.73;;;4.30;99.90;;;;;;5021766;28;20490;-63
2023/12/22 07:34:14;;;;;;;10.80;2.70;;;4.30;99.90;;;;;;5029175;28;20467;-62
2023/12/22 07:36:42;;;;;;;6.83;2.63;;;4.30;99.90;;;;;;5029119;28;20553;-63
2023/12/22 07:39:23;;;;;;;11.43;3.67;;;4.30;99.90;;;;;;5025790;28;20971;-62
2023/12/22 07:41:51;;;;;;;12.83;3.27;;;4.40;99.90;;;;;;5014825;28;20491;-63
2023/12/22 07:44:19;;;;;;;10.53;3.00;;;4.40;99.90;;;;;;5028248;28;20470;-62
2023/12/22 07:46:56;;;;;;;8.07;2.60;;;4.50;99.90;;;;;;5022615;28;21047;-63
2023/12/22 07:49:24;;;;;;;6.20;2.30;;;4.50;99.90;;;;;;5024296;28;20474;-63
2023/12/22 07:51:53;;;;;;;8.93;2.97;;;4.40;99.90;;;;;;5022005;28;21057;-62
2023/12/22 07:54:23;;;;;;;14.43;4.00;;;4.30;99.90;;;;;;5022773;28;20482;-62
2023/12/22 07:56:52;;;;;;;16.57;3.93;;;4.20;99.90;;;;;;5025880;28;20462;-63
2023/12/22 07:59:20;;;;;;;14.90;4.23;;;4.10;99.90;;;;;;5025012;28;20967;-63
2023/12/22 08:01:58;;;;;;;9.80;2.70;;;4.10;99.90;;;;;;5026997;28;20492;-63
2023/12/22 08:04:26;;;;;;;9.20;2.80;;;4.10;99.90;;;;;;5027038;28;20478;-63
2023/12/22 08:06:54;;;;;;;6.20;1.83;;;4.10;99.90;;;;;;5029073;28;20857;-63
2023/12/22 08:09:23;;;;;;;5.27;2.00;;;4.20;99.90;;;;;;5032019;28;20820;-62
2023/12/22 08:11:53;;;;;;;10.80;3.10;;;4.10;99.90;;;;;;5027331;28;20478;-60
2023/12/22 08:14:21;;;;;;;6.60;1.57;;;4.10;99.90;;;;;;5023987;28;20468;-60
2023/12/22 08:16:51;;;;;;;5.77;1.60;;;4.00;99.90;;;;;;5027036;28;20994;-62
2023/12/22 08:19:20;;;;;;;6.20;2.23;;;3.80;99.90;;;;;;5029400;28;20498;-62
2023/12/22 08:21:49;;;;;;;4.53;1.47;;;3.70;99.90;;;;;;5026250;28;20541;-62
2023/12/22 08:24:20;;;;;;;6.33;1.90;;;3.60;99.90;;;;;;5019311;28;20477;-62
2023/12/22 08:26:52;;;;;;;8.00;1.70;;;3.50;99.90;;;;;;5024968;28;20506;-62
2023/12/22 08:29:20;;;;;;;3.70;1.60;;;3.40;99.90;;;;;;5026789;28;20471;-62
2023/12/22 08:31:48;;;;;;;7.07;1.90;;;3.40;99.90;;;;;;5020380;28;20494;-62
2023/12/22 08:34:16;;;;;;;3.27;1.50;;;3.30;99.90;;;;;;5021878;28;20467;-62
2023/12/22 08:36:44;;;;;;;7.47;1.90;;;3.30;99.90;;;;;;5025368;28;21025;-62
2023/12/22 08:39:13;;;;;;;8.77;2.50;;;3.30;99.90;;;;;;5025325;28;20480;-62
2023/12/22 08:41:42;;;;;;;9.10;2.10;;;3.30;99.90;;;;;;5022248;28;20582;-62
2023/12/22 08:44:14;;;;;;;5.93;1.80;;;3.40;99.90;;;;;;5026512;28;20483;-63
2023/12/22 08:46:42;;;;;;;9.50;2.10;;;3.40;99.90;;;;;;5020983;28;20577;-63
2023/12/22 08:49:11;;;;;;;7.23;1.70;;;3.40;99.90;;;;;;5025354;28;20503;-62
2023/12/22 08:51:39;;;;;;;10.60;2.20;;;3.50;99.90;;;;;;5019529;28;20495;-63
2023/12/22 08:54:07;;;;;;;8.30;2.03;;;3.50;99.90;;;;;;5023568;28;20487;-63
2023/12/22 08:56:35;;;;;;;8.53;2.20;;;3.60;99.90;;;;;;5018254;28;20475;-61
2023/12/22 08:59:03;;;;;;;4.83;1.90;;;3.70;99.90;;;;;;5015055;28;20549;-61
2023/12/22 09:01:33;;;;;;;6.60;1.93;;;3.70;99.90;;;;;;5019441;28;21058;-62
2023/12/22 09:04:01;;;;;;;2.93;1.87;;;3.80;99.90;;;;;;5021076;28;20873;-63
2023/12/22 09:06:29;;;;;;;9.27;1.90;;;3.90;99.90;;;;;;5028601;28;20827;-63
2023/12/22 09:08:57;;;;;;;4.50;1.70;;;3.90;99.90;;;;;;5026307;28;21052;-63
2023/12/22 09:11:25;;;;;;;3.30;1.20;;;4.00;99.90;;;;;;5021590;28;20940;-63
2023/12/22 09:13:53;;;;;;;5.87;1.60;;;4.10;99.90;;;;;;5023385;28;20557;-63
2023/12/22 09:16:23;;;;;;;6.57;1.73;;;4.10;99.90;;;;;;5012720;28;20505;-63
2023/12/22 09:18:52;;;;;;;4.87;1.90;;;4.10;99.90;;;;;;5014231;28;20472;-63
2023/12/22 09:21:21;;;;;;;3.20;1.37;;;4.20;99.90;;;;;;5023071;28;20880;-63
2023/12/22 09:23:49;;;;;;;3.53;1.90;;;4.20;99.90;;;;;;5018101;28;20475;-63
2023/12/22 09:26:18;;;;;;;4.93;1.50;;;4.20;99.90;;;;;;5018031;28;20950;-63
2023/12/22 09:28:47;;;;;;;4.10;1.37;;;4.30;99.90;;;;;;5018209;28;21563;-62
2023/12/22 09:31:15;;;;;;;4.13;1.30;;;4.40;99.90;;;;;;5017798;28;20486;-61
2023/12/22 09:33:43;;;;;;;3.47;1.33;;;4.50;99.90;;;;;;5018140;28;20588;-63
2023/12/22 09:36:13;;;;;;;6.20;1.97;;;4.60;99.90;;;;;;5018306;28;20486;-63
2023/12/22 09:38:41;;;;;;;4.23;1.83;;;4.60;99.90;;;;;;5018722;28;20472;-63
2023/12/22 09:41:10;;;;;;;5.17;1.70;;;4.70;99.90;;;;;;5029002;28;20491;-62
2023/12/22 09:43:39;;;;;;;7.67;3.30;;;4.70;99.90;;;;;;5023929;28;20485;-62
2023/12/22 09:46:09;;;;;;;5.80;2.00;;;4.80;99.90;;;;;;5033097;28;20474;-63
2023/12/22 09:48:39;;;;;;;5.73;1.70;;;4.90;99.90;;;;;;5028881;28;20514;-63
2023/12/22 09:51:09;;;;;;;10.50;2.83;;;4.90;99.90;;;;;;5028642;28;20467;-63
2023/12/22 09:53:41;;;;;;;5.77;1.87;;;5.00;99.90;;;;;;5027031;28;20562;-63
2023/12/22 09:56:09;;;;;;;3.90;1.60;;;5.00;99.90;;;;;;5028375;28;20602;-63
2023/12/22 09:58:38;;;;;;;11.27;2.40;;;5.10;99.90;;;;;;5027948;28;20475;-64
2023/12/22 10:01:07;;;;;;;6.67;1.90;;;5.10;99.90;;;;;;5026988;28;20498;-63
2023/12/22 10:03:35;;;;;;;8.83;2.07;;;5.10;99.90;;;;;;5027086;28;20506;-64
2023/12/22 10:06:04;;;;;;;12.93;2.37;;;5.20;99.90;;;;;;5026015;28;20475;-64
2023/12/22 10:08:34;;;;;;;6.93;1.73;;;5.20;99.90;;;;;;5032130;28;20471;-63
2023/12/22 10:11:04;;;;;;;7.47;2.63;;;5.20;99.90;;;;;;5028900;28;20553;-64
2023/12/22 10:13:37;;;;;;;6.60;1.60;;;5.20;99.90;;;;;;5028330;28;20483;-66
2023/12/22 10:16:06;;;;;;;8.03;1.90;;;5.20;99.90;;;;;;5023773;28;20582;-67
2023/12/22 10:18:35;;;;;;;8.13;2.30;;;5.20;99.90;;;;;;5014839;28;20500;-65
2023/12/22 10:21:03;;;;;;;6.73;2.47;;;5.20;99.90;;;;;;5016076;28;20484;-65
2023/12/22 10:23:31;;;;;;;4.23;1.47;;;5.30;99.90;;;;;;5015939;28;20488;-66
2023/12/22 10:25:59;;;;;;;6.77;2.07;;;5.30;99.90;;;;;;5014717;28;20471;-66
2023/12/22 10:28:29;;;;;;;7.20;2.23;;;5.30;99.90;;;;;;5013592;28;20474;-66
2023/12/22 10:31:03;;;;;;;10.63;2.70;;;5.30;99.90;;;;;;5016522;28;20475;-65
2023/12/22 10:33:31;;;;;;;9.47;2.40;;;5.30;99.90;;;;;;5015680;28;20664;-66
2023/12/22 10:36:00;;;;;;;10.90;2.07;;;5.30;99.90;;;;;;5018654;28;20531;-66
2023/12/22 10:38:34;;;;;;;7.10;1.80;;;5.30;99.90;;;;;;5016240;28;20471;-65
2023/12/22 10:41:02;;;;;;;13.93;2.90;;;5.40;99.90;;;;;;5016944;28;20563;-66
2023/12/22 10:43:39;;;;;;;6.93;2.50;;;5.40;99.90;;;;;;5023093;28;21342;-66
2023/12/22 10:46:10;;;;;;;8.97;2.37;;;5.40;99.90;;;;;;5026059;28;20470;-66
2023/12/22 10:48:38;;;;;;;14.13;2.63;;;5.40;99.90;;;;;;5024704;28;20492;-66
2023/12/22 10:51:10;;;;;;;7.73;2.27;;;5.40;99.90;;;;;;5021253;28;20472;-67
2023/12/22 10:53:42;;;;;;;6.27;2.37;;;5.40;99.90;;;;;;5020431;28;20471;-67
2023/12/22 10:56:11;;;;;;;9.07;1.87;;;5.50;99.90;;;;;;5024427;28;20487;-65
2023/12/22 10:58:40;;;;;;;8.43;2.20;;;5.40;99.90;;;;;;5026057;28;20476;-65
2023/12/22 11:01:10;;;;;;;7.40;2.17;;;5.40;99.90;;;;;;5025680;28;20489;-66
2023/12/22 11:03:40;;;;;;;7.37;2.17;;;5.40;99.90;;;;;;5024777;28;20581;-67
2023/12/22 11:06:13;;;;;;;5.30;1.70;;;5.40;99.90;;;;;;5028588;28;20471;-66
2023/12/22 11:08:44;;;;;;;3.80;1.30;;;5.30;99.90;;;;;;5025863;28;20483;-67
2023/12/22 11:11:17;;;;;;;5.70;2.10;;;5.30;99.90;;;;;;5026508;28;20537;-67
2023/12/22 11:13:46;;;;;;;7.43;1.90;;;5.20;99.90;;;;;;5029162;28;20522;-66
2023/12/22 11:16:16;;;;;;;6.50;2.83;;;5.20;99.90;;;;;;5022042;28;20475;-66
2023/12/22 11:18:45;;;;;;;6.20;2.00;;;5.10;99.90;;;;;;5026563;28;20475;-65
2023/12/22 11:21:14;;;;;;;8.30;2.27;;;5.10;99.90;;;;;;5022820;28;20478;-64
2023/12/22 11:23:44;;;;;;;7.03;1.67;;;5.10;99.90;;;;;;5029616;28;21361;-65
2023/12/22 11:26:14;;;;;;;10.70;1.70;;;5.10;99.90;;;;;;5023020;28;20512;-68
2023/12/22 11:28:44;;;;;;;6.40;2.20;;;5.10;99.90;;;;;;5022600;28;20558;-65
2023/12/22 11:31:13;;;;;;;9.67;1.97;;;5.10;99.90;;;;;;5026686;28;20471;-65
2023/12/22 11:33:45;;;;;;;8.00;1.47;;;5.00;99.90;;;;;;5029501;28;20979;-66
2023/12/22 11:36:32;;;;;;;8.87;1.70;;;5.10;99.90;;;;;;5023981;28;20475;-66
2023/12/22 11:39:00;;;;;;;6.17;1.90;;;5.20;99.90;;;;;;5024108;28;20551;-67
2023/12/22 11:41:33;;;;;;;5.63;2.17;;;5.20;99.90;;;;;;5028819;28;20471;-66
2023/12/22 11:44:03;;;;;;;6.20;1.77;;;5.20;99.90;;;;;;5020134;28;20556;-66
2023/12/22 11:46:33;;;;;;;4.67;1.63;;;5.20;99.90;;;;;;5028884;28;20561;-66
2023/12/22 11:49:02;;;;;;;8.03;2.40;;;5.30;99.90;;;;;;5030149;28;20468;-67
2023/12/22 11:51:34;;;;;;;8.07;2.00;;;5.30;99.90;;;;;;5024654;28;20486;-67
2023/12/22 11:54:02;;;;;;;4.30;1.40;;;5.50;99.90;;;;;;5025662;28;20548;-65
2023/12/22 11:56:31;;;;;;;7.23;2.40;;;5.60;99.90;;;;;;5027573;28;20558;-66
2023/12/22 11:59:01;;;;;;;5.00;2.43;;;5.70;99.90;;;;;;5026887;28;20564;-66
2023/12/22 12:01:31;;;;;;;11.67;2.20;;;5.80;99.90;;;;;;5025402;28;20553;-69
2023/12/22 12:04:05;;;;;;;6.07;1.73;;;5.80;99.90;;;;;;5030971;28;20500;-66
2023/12/22 12:06:36;;;;;;;6.73;2.10;;;5.90;99.90;;;;;;5029398;28;20493;-66
2023/12/22 12:09:08;;;;;;;9.57;2.63;;;6.00;99.90;;;;;;5030259;28;20531;-66
2023/12/22 12:12:12;;;;;;;3.50;1.70;;;6.10;99.90;;;;;;5028559;28;20482;-65
2023/12/22 12:14:44;;;;;;;4.77;1.70;;;6.10;99.90;;;;;;5000445;28;20913;-66
2023/12/22 12:17:12;;;;;;;5.10;1.70;;;6.30;99.90;;;;;;5017511;28;20969;-70
2023/12/22 12:19:42;;;;;;;4.43;1.80;;;6.40;99.90;;;;;;5016474;28;20463;-64
2023/12/22 12:22:13;;;;;;;8.40;2.00;;;6.40;99.90;;;;;;5016351;28;20505;-66
2023/12/22 12:24:42;;;;;;;8.03;1.77;;;6.40;99.90;;;;;;5017043;28;21169;-65
2023/12/22 12:27:10;;;;;;;7.90;1.83;;;6.40;99.90;;;;;;5005306;28;21424;-69
2023/12/22 12:29:40;;;;;;;5.47;1.70;;;6.40;99.90;;;;;;5004892;28;20475;-64
2023/12/22 12:32:08;;;;;;;11.03;2.73;;;6.40;99.90;;;;;;5002204;28;20927;-67
2023/12/22 12:34:38;;;;;;;6.13;1.83;;;6.50;99.90;;;;;;5001433;28;20473;-67
2023/12/22 12:37:08;;;;;;;7.77;3.93;;;6.60;99.90;;;;;;5005297;28;20480;-67
2023/12/22 12:39:38;;;;;;;10.13;1.93;;;6.60;99.90;;;;;;4993613;28;20475;-65
2023/12/22 12:42:08;;;;;;;5.63;1.90;;;6.50;99.90;;;;;;5001631;28;20640;-66
2023/12/22 12:44:38;;;;;;;8.40;2.10;;;6.50;99.90;;;;;;5003342;28;20518;-65
2023/12/22 12:47:12;;;;;;;9.10;2.00;;;6.40;99.90;;;;;;5004520;28;20522;-67
2023/12/22 12:49:41;;;;;;;8.77;2.37;;;6.20;99.90;;;;;;4995288;28;20466;-65
2023/12/22 12:52:14;;;;;;;6.63;1.83;;;6.20;99.90;;;;;;5007739;28;20499;-69
2023/12/22 12:54:43;;;;;;;7.00;2.00;;;6.10;99.90;;;;;;5008737;28;20468;-68
2023/12/22 12:57:15;;;;;;;7.80;1.97;;;6.10;99.90;;;;;;5007365;28;20475;-65
2023/12/22 12:59:46;;;;;;;5.60;1.67;;;5.90;99.90;;;;;;5006710;28;20912;-66
2023/12/22 13:02:15;;;;;;;5.03;1.50;;;5.70;99.90;;;;;;5008439;28;20486;-66
2023/12/22 13:04:43;;;;;;;6.27;1.83;;;5.60;99.90;;;;;;5012792;28;21366;-66